• Join FlightAware (Why Join?)
  • Login
  • US Flag 
05:23AM EDT


 

Airport Tracker/Info


-or-


 

Live Flight TrackerFlight Track Log ✈ AWE400 ✈ 23-Jul-2013 ✈ KPHX - KSFO

Flight Track Log - Related Links

Times and Time Zones

All times are in EDT time to prevent confusion due to time zone crossing. See the AWE400 flight status page for this flight to view local times or setup timezone preferences in your user account.

Time Position Orientation Groundspeed Altitude Reporting Facility
EDT Latitude Longitude Course Direction KTS MPH feet Rate Location/Type
02:05PM 33.4333 -112.0333 334° Northwest 168 193 2,400  Level Phoenix TRACON
02:06PM 33.4500 -112.1000 287° West 210 242 3,200 1,260 Climbing Phoenix TRACON
02:07PM 33.4439 -112.1531 262° West 240 276 4,700 2,400 Climbing Albuquerque Center
02:08PM 33.8579 -112.2412 334° Northwest  Level FlightAware Approximate
02:08PM 33.5011 -112.1864 334° Northwest 268 308 7,500  Level Albuquerque Center
02:09PM 33.9645 -112.3030 334° Northwest  Level FlightAware Approximate
02:09PM 33.5742 -112.1672 12° North 269 310 10,300  Level Albuquerque Center
02:10PM 34.0725 -112.3568 334° Northwest  Level FlightAware Approximate
02:10PM 33.6544 -112.1956 344° North 303 349 12,100  Level Albuquerque Center
02:11PM 33.7575 -112.2325 343° North 321 369 14,700 2,220 Climbing Albuquerque Center
02:12PM 33.8475 -112.2664 343° North 335 386 16,700 1,980 Climbing Albuquerque Center
02:13PM 33.9403 -112.3017 342° North 345 397 18,800 1,320 Climbing Albuquerque Center
02:15PM 34.1278 -112.3978 337° Northwest 400 460 20,700 1,140 Climbing Los Angeles Center
02:16PM 34.2117 -112.4894 318° Northwest 406 467 22,300 1,560 Climbing Los Angeles Center
02:17PM 34.3131 -112.5986 318° Northwest 411 473 24,000 1,260 Climbing Los Angeles Center
02:18PM 34.3992 -112.6925 318° Northwest 417 480 25,000 960 Climbing Los Angeles Center
02:19PM 34.4883 -112.7872 319° Northwest 426 490 26,100 1,020 Climbing Los Angeles Center
02:20PM 34.5767 -112.8867 317° Northwest 433 498 27,200 1,020 Climbing Albuquerque Center
02:21PM 34.6858 -113.0067 318° Northwest 440 506 28,300 1,200 Climbing Albuquerque Center
02:22PM 34.7789 -113.1094 318° Northwest 448 516 29,800 1,440 Climbing Albuquerque Center
02:23PM 34.8675 -113.2069 318° Northwest 437 503 31,300 840 Climbing Albuquerque Center
02:24PM 34.9528 -113.3114 315° West 435 501 31,500 360 Climbing Los Angeles Center
02:25PM 35.0178 -113.4425 301° West 449 517 32,100 720 Climbing Los Angeles Center
02:26PM 35.0639 -113.5858 291° West 453 521 33,100 900 Climbing Los Angeles Center
02:27PM 35.1100 -113.7278 292° West 450 518 34,000 420 Climbing Los Angeles Center
02:28PM 35.1547 -113.8678 291° West 443 510 34,000  Level Los Angeles Center
02:29PM 35.2061 -114.0333 291° West 441 507 34,000  Level Los Angeles Center
02:30PM 35.2519 -114.1736 292° West 441 507 34,000  Level Los Angeles Center
02:31PM 35.2967 -114.3136 291° West 442 509 34,000  Level Los Angeles Center
02:32PM 35.3411 -114.4556 291° West 444 511 34,000  Level Los Angeles Center
02:33PM 35.3764 -114.5697 291° West 447 514 34,000  Level Los Angeles Center
02:34PM 35.4414 -114.7692 292° West 447 514 34,000  Level Los Angeles Center
02:36PM 35.5142 -114.8950 305° West 450 518 34,000  Level Los Angeles Center
02:37PM 35.5997 -115.0117 312° West 455 524 34,000  Level Los Angeles Center
02:38PM 35.6831 -115.1300 311° West 457 526 34,000  Level Los Angeles Center
02:39PM 35.7653 -115.2475 311° West 454 522 34,000  Level Los Angeles Center
02:40PM 35.8328 -115.3414 312° West 454 522 34,000  Level Los Angeles Center
02:41PM 35.9492 -115.5075 311° West 454 522 34,000  Level Los Angeles Center
02:42PM 36.0333 -115.6275 311° West 455 524 34,000  Level Los Angeles Center
02:43PM 36.1169 -115.7489 310° West 456 525 34,000  Level Los Angeles Center
02:44PM 36.2000 -115.8722 310° West 459 528 34,000  Level Los Angeles Center
02:45PM 36.2897 -116.0008 311° West 458 527 34,000  Level Los Angeles Center
02:46PM 36.3722 -116.1200 311° West 455 524 34,000  Level Los Angeles Center
02:47PM 36.4483 -116.2264 312° West 453 521 34,000  Level Los Angeles Center
02:48PM 36.5361 -116.3572 310° West 451 519 34,000  Level Los Angeles Center
02:49PM 36.6175 -116.4769 310° West 452 520 34,000  Level Los Angeles Center
02:50PM 36.7000 -116.5969 311° West 454 522 34,000  Level Los Angeles Center
02:51PM 36.8200 -116.7589 313° West 456 525 34,000  Level Los Angeles Center
02:52PM 36.9247 -116.8517 325° Northwest 461 531 34,000  Level Los Angeles Center
02:54PM 37.0303 -116.9397 326° Northwest 457 526 34,000  Level Los Angeles Center
02:55PM 37.1581 -117.0469 326° Northwest 458 527 34,000  Level Los Angeles Center
02:56PM 37.2631 -117.1361 326° Northwest 457 526 34,000  Level Los Angeles Center
02:57PM 37.3458 -117.2547 311° West 459 528 34,000  Level Los Angeles Center
02:58PM 37.3667 -117.4103 280° West 455 524 34,000  Level Los Angeles Center
02:58PM 37.3742 -117.5028 276° West 450 518 34,000  Level Oakland Center
02:59PM 37.3908 -117.6897 276° West 446 513 34,000  Level Oakland Center
03:00PM 37.4033 -117.8439 276° West 444 511 34,000  Level Oakland Center
03:01PM 37.4167 -117.9961 276° West 440 506 34,000  Level Oakland Center
03:02PM 37.4303 -118.1522 276° West 446 513 34,000  Level Oakland Center
03:03PM 37.4428 -118.3058 276° West 444 511 34,000  Level Oakland Center
03:04PM 37.4553 -118.4614 276° West 445 512 34,000  Level Oakland Center
03:05PM 37.4672 -118.6175 276° West 447 514 34,000  Level Oakland Center
03:06PM 37.4803 -118.7725 276° West 446 513 34,000  Level Oakland Center
03:07PM 37.4903 -118.9281 275° West 445 512 34,000  Level Oakland Center
03:09PM 37.5028 -119.0819 276° West 445 512 34,000 -60 Level Oakland Center
03:10PM 37.5164 -119.2678 275° West 446 513 33,900  Descending Oakland Center
03:11PM 37.5275 -119.4214 275° West 444 511 34,000  Climbing Oakland Center
03:12PM 37.5392 -119.5725 276° West 444 511 34,000  Level Oakland Center
03:13PM 37.5492 -119.7272 275° West 443 510 34,000  Level Oakland Center
03:14PM 37.5606 -119.8800 275° West 439 505 34,000 -720 Level Oakland Center
03:15PM 37.5711 -120.0339 275° West 440 506 32,600 -1,920 Descending Oakland Center
03:16PM 37.5817 -120.1919 275° West 447 514 30,100 -2,220 Descending Oakland Center
03:17PM 37.5906 -120.3453 274° West 443 510 28,100 -2,220 Descending Oakland Center
03:18PM 37.6014 -120.5264 274° West 432 497 25,600 -2,400 Descending Oakland Center
03:19PM 37.5981 -120.6739 268° West 423 487 23,200 -2,100 Descending Oakland Center
03:20PM 37.5917 -120.8181 267° West 414 476 21,300 -1,920 Descending Oakland Center
03:21PM 37.5850 -120.9558 267° West 398 458 19,300 -1,920 Descending Oakland Center
03:22PM 37.5781 -121.0933 266° West 394 453 17,400 -1,920 Descending Oakland Center
03:23PM 37.5708 -121.2317 266° West 381 438 15,400 -1,860 Descending Oakland Center
03:24PM 37.5644 -121.3614 266° West 372 428 13,600 -1,620 Descending Oakland Center
03:25PM 37.5533 -121.4833 263° West 357 411 12,100 -1,320 Descending Oakland Center
03:26PM 37.5333 -121.5950 257° West 330 380 10,900 -1,440 Descending Oakland Center
03:27PM 37.5167 -121.7167 260° West 302 348 9,100 -1,440 Descending Northern Cal TRACON
03:28PM 37.5000 -121.8167 258° West 292 336 7,900 -960 Descending Northern Cal TRACON
03:29PM 37.4833 -121.9167 258° West 272 313 7,200 -900 Descending Northern Cal TRACON
03:30PM 37.5000 -122.0000 284° West 240 276 6,100 -1,080 Descending Northern Cal TRACON
03:31PM 37.5333 -122.0833 297° West 232 267 5,100 -1,020 Descending Northern Cal TRACON